Other Surface Observations
Issued by NWS Great Falls, MT

Home | Current Version | Previous Version | Text Only | Print | Product List | Glossary On
Versions: 1 2 3 4 5 6 7 8 9 10 11 12 13 14 15 16 17 18 19 20 21 22 23 24 25 26 27 28 29 30 31 32 33 34 35 36 37 38 39 40 41 42 43 44 45 46 47 48 49 50
000
SXUS55 KTFX 241129
OSOTFX
AREA AWOS OBSERVATIONS
NATIONAL WEATHER SERVICE GREAT FALLS MT
0429 AM MST FRI FEB 24 2017

METAR KPWD 241130Z AUTO 00000KT 9SM M07/M09 A3012 RMK PLENTYWOOD
METAR K1S3 241130Z AUTO 07006KT 5SM M03/M03 A3002 RMK FORSYTH
METAR KS71 241130Z AUTO 11008KT 10SM A3003 RMK CHINOOK
METAR K79S 241130Z AUTO 10SM M03/M06 A3000 RMK FORT BENTON
METAR K38S 241130Z AUTO 04003KT 8SM M07/M09 A2994 RMK DEER LODGE
METAR K3U3 241130Z AUTO 23004KT 10SM M09/M12 A2990 RMK ANACONDA
METAR K6S5 241130Z AUTO 31007KT 10SM M02/M07 RMK HAMILTON
METAR KS59 241130Z AUTO 00000KT 10SM M12/M13 A3005 RMK LIBBY
METAR K88M 241130Z AUTO 00000KT 10SM M13/M14 A3005 RMK EUREKA



USA.gov is the U.S. government's official web portal to all federal, state and local government web resources and services.